Time;durP1;ratioP1;P1;durP2;ratioP2;P2;SDS_P1;SDS_P2;PMS_P1;PMS_P2;Temp;Humidity;BMP_temperature;BMP_pressure;BME280_temperature;BME280_humidity;BME280_pressure;Samples;Min_cycle;Max_cycle;Signal;HPM_P1;HPM_P2
2022/12/22 03:26:01;;;;;;;;;;;;;;;8.02;75.59;101861.78;5043359;28;20357;-81
2022/12/22 03:28:27;;;;;;;;;;;;;;;8.01;75.44;101855.66;5051567;28;19917;-82
2022/12/22 03:31:00;;;;;;;;;;;;;;;8.04;75.29;101850.69;5047663;28;20366;-81
2022/12/22 03:33:25;;;;;;;;;;;;;;;8.06;75.33;101856.03;5050611;28;19917;-83
2022/12/22 03:35:51;;;;;;;;;;;;;;;8.02;75.36;101854.91;5047715;28;19932;-81
2022/12/22 03:38:16;;;;;;;;;;;;;;;7.99;75.45;101857.25;5049771;28;20444;-81
2022/12/22 03:40:42;;;;;;;;;;;;;;;8.02;75.33;101860.09;5042924;28;19924;-82
2022/12/22 03:48:37;;;;;;;;;;;;;;;7.97;75.36;101855.31;5042875;28;19990;-83
2022/12/22 03:51:03;;;;;;;;;;;;;;;7.98;75.33;101858.03;5049046;28;19921;-83
2022/12/22 03:53:28;;;;;;;;;;;;;;;8.04;75.14;101860.22;5040122;28;20012;-83
2022/12/22 03:55:54;;;;;;;;;;;;;;;8.03;75.18;101858.41;5047895;28;19956;-83
2022/12/22 03:58:19;;;;;;;;;;;;;;;7.96;75.24;101851.81;5047585;28;20347;-82
2022/12/22 04:00:45;;;;;;;;;;;;;;;8.01;75.12;101849.56;5046503;28;20353;-82
2022/12/22 04:03:10;;;;;;;;;;;;;;;7.93;75.48;101851.53;5056644;28;20385;-82
2022/12/22 04:05:36;;;;;;;;;;;;;;;7.90;75.54;101848.69;5054883;28;20349;-82
2022/12/22 04:08:01;;;;;;;;;;;;;;;7.97;75.14;101852.69;5049928;28;19917;-82
2022/12/22 04:13:10;;;;;;;;;;;;;;;7.89;75.28;101855.56;5042869;28;19974;-82
2022/12/22 04:15:36;;;;;;;;;;;;;;;7.88;75.30;101851.16;5045929;28;19925;-83
2022/12/22 04:18:01;;;;;;;;;;;;;;;7.89;75.41;101839.97;5040338;28;19917;-84
2022/12/22 04:20:27;;;;;;;;;;;;;;;7.95;75.23;101842.16;5045666;28;20306;-83
2022/12/22 04:22:53;;;;;;;;;;;;;;;7.91;75.10;101850.50;5043396;28;20318;-84
2022/12/22 04:25:18;;;;;;;;;;;;;;;7.95;75.22;101857.78;5041096;28;19993;-83
2022/12/22 04:27:44;;;;;;;;;;;;;;;7.88;75.41;101845.97;5043803;28;19920;-83
2022/12/22 04:30:09;;;;;;;;;;;;;;;7.87;75.33;101854.56;5040389;28;19920;-83
2022/12/22 04:32:35;;;;;;;;;;;;;;;7.84;75.39;101854.28;5041315;28;19917;-83
2022/12/22 04:35:00;;;;;;;;;;;;;;;7.84;75.49;101856.91;5049689;28;20492;-83
2022/12/22 04:37:25;;;;;;;;;;;;;;;7.86;75.40;101857.03;5047164;28;19921;-83
2022/12/22 04:39:51;;;;;;;;;;;;;;;7.88;75.36;101860.66;5047284;28;19929;-82
2022/12/22 04:42:16;;;;;;;;;;;;;;;7.92;75.18;101863.63;5045413;28;20007;-84
2022/12/22 04:44:42;;;;;;;;;;;;;;;7.84;75.43;101862.09;5044350;28;20353;-83
2022/12/22 04:47:07;;;;;;;;;;;;;;;7.85;75.48;101860.38;5043378;28;20376;-83
2022/12/22 04:49:33;;;;;;;;;;;;;;;7.88;75.30;101855.47;5043174;28;19986;-83
2022/12/22 04:51:58;;;;;;;;;;;;;;;7.90;75.33;101853.91;5042979;28;19965;-83
2022/12/22 04:54:24;;;;;;;;;;;;;;;7.84;75.39;101843.88;5046352;28;20140;-82
2022/12/22 04:56:49;;;;;;;;;;;;;;;7.82;75.34;101857.56;5037938;28;19917;-82
2022/12/22 04:59:15;;;;;;;;;;;;;;;7.88;75.19;101851.16;5036557;28;20356;-82
2022/12/22 05:01:40;;;;;;;;;;;;;;;7.86;75.15;101847.53;5044273;28;19920;-82
2022/12/22 05:04:06;;;;;;;;;;;;;;;7.83;75.43;101852.50;5049744;28;19920;-81
2022/12/22 05:06:31;;;;;;;;;;;;;;;7.89;75.17;101850.38;5044528;28;19921;-82
2022/12/22 05:08:56;;;;;;;;;;;;;;;7.87;75.20;101856.22;5044357;28;19917;-82
2022/12/22 05:11:22;;;;;;;;;;;;;;;7.93;75.11;101859.34;5045520;28;19939;-82
2022/12/22 05:13:47;;;;;;;;;;;;;;;7.89;75.14;101855.56;5045765;28;20341;-83
2022/12/22 05:16:14;;;;;;;;;;;;;;;7.88;75.10;101856.38;5042379;28;19912;-83
2022/12/22 05:18:40;;;;;;;;;;;;;;;7.83;75.21;101864.56;5043563;28;20322;-83
2022/12/22 05:21:06;;;;;;;;;;;;;;;7.82;75.30;101860.16;5049015;28;19916;-80
2022/12/22 05:23:31;;;;;;;;;;;;;;;7.88;75.18;101858.97;5047811;28;20360;-82
2022/12/22 05:25:57;;;;;;;;;;;;;;;7.84;75.04;101862.09;5045686;28;19943;-81
2022/12/22 05:28:22;;;;;;;;;;;;;;;7.87;75.02;101861.44;5046848;28;19975;-83
2022/12/22 05:30:47;;;;;;;;;;;;;;;7.81;75.22;101855.72;5034842;28;20007;-83
2022/12/22 05:33:13;;;;;;;;;;;;;;;7.82;75.24;101860.16;5028653;28;20404;-83
2022/12/22 05:35:38;;;;;;;;;;;;;;;7.86;75.09;101860.53;5044165;28;20368;-83
2022/12/22 05:38:05;;;;;;;;;;;;;;;7.80;75.24;101866.91;5048693;28;20398;-84
2022/12/22 05:40:30;;;;;;;;;;;;;;;7.88;74.92;101868.47;5046301;28;19932;-82
2022/12/22 05:42:56;;;;;;;;;;;;;;;7.80;75.30;101869.53;5045051;28;20405;-81
2022/12/22 05:45:21;;;;;;;;;;;;;;;7.78;75.28;101866.78;5045224;28;20279;-81
2022/12/22 05:47:48;;;;;;;;;;;;;;;7.80;75.32;101866.91;5045882;28;19940;-82
2022/12/22 05:50:15;;;;;;;;;;;;;;;7.75;75.31;101866.53;5052795;28;19924;-83
2022/12/22 05:52:40;;;;;;;;;;;;;;;7.78;75.17;101868.47;5048220;28;19968;-82
2022/12/22 05:55:06;;;;;;;;;;;;;;;7.77;75.19;101877.06;5044946;28;19956;-81
2022/12/22 05:57:32;;;;;;;;;;;;;;;7.78;75.18;101873.69;5043456;28;19925;-82
2022/12/22 05:59:57;;;;;;;;;;;;;;;7.78;75.25;101881.47;5043947;28;19916;-83
2022/12/22 06:02:23;;;;;;;;;;;;;;;7.77;75.25;101871.84;5041755;28;20037;-83
2022/12/22 06:04:48;;;;;;;;;;;;;;;7.82;75.29;101876.66;5039974;28;20306;-83
2022/12/22 06:07:14;;;;;;;;;;;;;;;7.78;75.21;101874.59;5038920;28;19966;-83
2022/12/22 06:09:39;;;;;;;;;;;;;;;7.76;75.13;101881.34;5043735;28;19921;-83
2022/12/22 06:12:05;;;;;;;;;;;;;;;7.77;75.31;101879.66;5050705;28;19917;-83
2022/12/22 06:14:31;;;;;;;;;;;;;;;7.78;75.41;101881.47;5042498;28;19921;-82
2022/12/22 06:16:57;;;;;;;;;;;;;;;7.78;75.37;101871.97;5039153;28;20302;-81
2022/12/22 06:19:22;;;;;;;;;;;;;;;7.80;75.07;101879.91;5043905;28;19924;-82
2022/12/22 06:21:47;;;;;;;;;;;;;;;7.77;75.20;101877.97;5041337;28;20383;-81
2022/12/22 06:24:13;;;;;;;;;;;;;;;7.73;75.16;101878.50;5043986;28;19950;-81
2022/12/22 06:26:38;;;;;;;;;;;;;;;7.79;75.11;101878.09;5049531;28;19947;-80
2022/12/22 06:29:04;;;;;;;;;;;;;;;7.71;75.25;101882.66;5050056;28;20389;-82
2022/12/22 06:31:29;;;;;;;;;;;;;;;7.72;75.12;101880.19;5047748;28;19923;-83
2022/12/22 06:33:54;;;;;;;;;;;;;;;7.70;75.10;101888.63;5040515;28;20441;-81
2022/12/22 06:36:20;;;;;;;;;;;;;;;7.70;75.32;101884.38;5051928;28;20373;-81
2022/12/22 06:38:45;;;;;;;;;;;;;;;7.70;75.31;101884.38;5057753;28;20324;-82
2022/12/22 06:41:11;;;;;;;;;;;;;;;7.73;74.99;101889.81;5072136;28;19924;-80
2022/12/22 06:43:36;;;;;;;;;;;;;;;7.71;75.10;101887.88;5069150;28;20038;-83
2022/12/22 06:46:01;;;;;;;;;;;;;;;7.73;75.14;101887.22;5062539;28;20375;-82
2022/12/22 06:48:27;;;;;;;;;;;;;;;7.73;75.30;101883.72;5042297;28;20352;-80
2022/12/22 06:50:56;;;;;;;;;;;;;;;7.71;75.13;101893.06;5049352;28;19966;-81
2022/12/22 06:53:21;;;;;;;;;;;;;;;7.65;75.30;101885.66;5064850;28;19914;-81
2022/12/22 06:55:47;;;;;;;;;;;;;;;7.63;75.39;101884.63;5059073;28;19955;-83
2022/12/22 06:58:12;;;;;;;;;;;;;;;7.65;75.35;101892.56;5044924;28;20362;-83
2022/12/22 07:00:38;;;;;;;;;;;;;;;7.62;75.26;101898.41;5060798;28;19936;-82
2022/12/22 07:03:03;;;;;;;;;;;;;;;7.62;75.37;101901.00;5048220;28;20002;-84
2022/12/22 07:05:30;;;;;;;;;;;;;;;7.71;75.20;101893.97;5047773;28;19921;-82
2022/12/22 07:07:56;;;;;;;;;;;;;;;7.64;75.27;101899.44;5045044;28;20286;-82
2022/12/22 07:10:56;;;;;;;;;;;;;;;7.67;75.27;101902.28;5054917;28;20373;-82
2022/12/22 07:13:18;;;;;;;;;;;;;;;7.62;75.55;101901.00;5048982;28;19974;-83
2022/12/22 07:15:44;;;;;;;;;;;;;;;7.60;75.46;101901.63;5072407;28;19928;-83
2022/12/22 07:18:10;;;;;;;;;;;;;;;7.60;75.41;101905.16;5047940;28;19938;-83
2022/12/22 07:20:35;;;;;;;;;;;;;;;7.60;75.35;101910.38;5048647;28;20362;-83
2022/12/22 07:23:00;;;;;;;;;;;;;;;7.62;75.49;101908.81;5052139;28;19924;-83
2022/12/22 07:25:26;;;;;;;;;;;;;;;7.63;75.41;101910.63;5066776;28;20455;-84
2022/12/22 07:27:51;;;;;;;;;;;;;;;7.60;75.52;101905.16;5046318;28;20294;-83
2022/12/22 07:30:17;;;;;;;;;;;;;;;7.64;75.51;101907.25;5047056;28;20448;-83
2022/12/22 07:32:42;;;;;;;;;;;;;;;7.59;75.45;101912.84;5067234;28;19917;-83
2022/12/22 07:35:08;;;;;;;;;;;;;;;7.56;75.74;101916.09;5068762;28;19916;-83
2022/12/22 07:37:33;;;;;;;;;;;;;;;7.56;75.78;101918.69;5041710;28;20306;-83
2022/12/22 07:39:58;;;;;;;;;;;;;;;7.58;75.69;101911.94;5018290;28;19929;-83
2022/12/22 07:45:08;;;;;;;;;;;;;;;7.54;75.65;101913.34;5051353;28;19970;-83
2022/12/22 07:47:33;;;;;;;;;;;;;;;7.53;75.86;101908.94;5050621;28;19920;-83
2022/12/22 07:52:42;;;;;;;;;;;;;;;7.57;75.79;101906.59;5050989;28;19924;-84
2022/12/22 07:55:08;;;;;;;;;;;;;;;7.59;75.72;101907.63;5044864;28;19921;-83
2022/12/22 07:57:34;;;;;;;;;;;;;;;7.55;75.78;101899.56;5041176;28;20378;-84
2022/12/22 08:00:00;;;;;;;;;;;;;;;7.55;75.71;101891.75;5041958;28;19921;-84
2022/12/22 08:02:25;;;;;;;;;;;;;;;7.56;75.83;101897.91;5037111;28;19979;-84
2022/12/22 08:04:51;;;;;;;;;;;;;;;7.57;75.79;101891.00;5045582;28;19916;-84
2022/12/22 08:07:16;;;;;;;;;;;;;;;7.58;75.81;101898.94;5044877;28;20692;-84
2022/12/22 08:09:42;;;;;;;;;;;;;;;7.56;75.78;101892.69;5044203;28;19917;-83
2022/12/22 08:12:07;;;;;;;;;;;;;;;7.53;76.06;101889.81;5044227;28;19920;-84
2022/12/22 08:14:32;;;;;;;;;;;;;;;7.57;75.92;101889.31;5042154;28;19923;-84
2022/12/22 08:16:58;;;;;;;;;;;;;;;7.55;76.02;101883.06;5041190;28;19972;-84
2022/12/22 08:19:23;;;;;;;;;;;;;;;7.56;76.03;101887.50;5040573;28;20374;-83
2022/12/22 08:21:49;;;;;;;;;;;;;;;7.60;75.74;101879.19;5040859;28;20420;-84
2022/12/22 08:24:14;;;;;;;;;;;;;;;7.56;75.87;101879.69;5038368;28;20329;-83
2022/12/22 08:26:40;;;;;;;;;;;;;;;7.56;75.92;101877.09;5039110;28;20015;-83
2022/12/22 08:29:19;;;;;;;;;;;;;;;7.54;76.11;101870.88;5041803;28;20313;-83
2022/12/22 08:31:45;;;;;;;;;;;;;;;7.55;76.12;101870.06;5030028;28;19917;-83
2022/12/22 08:34:11;;;;;;;;;;;;;;;7.55;76.30;101864.88;5038665;28;19921;-83
2022/12/22 08:36:39;;;;;;;;;;;;;;;7.59;76.10;101861.75;5041502;28;19931;-83
2022/12/22 08:39:04;;;;;;;;;;;;;;;7.58;76.13;101870.34;5043429;28;19925;-82
2022/12/22 08:44:13;;;;;;;;;;;;;;;7.57;76.02;101858.09;5038683;28;19960;-83
2022/12/22 08:46:39;;;;;;;;;;;;;;;7.61;75.84;101860.19;5045493;28;19960;-82
2022/12/22 08:49:04;;;;;;;;;;;;;;;7.61;75.91;101859.28;5041424;28;20372;-83
2022/12/22 08:51:30;;;;;;;;;;;;;;;7.74;75.38;101850.00;5044577;28;20662;-82
2022/12/22 08:53:55;;;;;;;;;;;;;;;7.65;75.62;101851.88;5038151;28;20374;-83
2022/12/22 08:56:20;;;;;;;;;;;;;;;7.62;75.92;101842.88;5042625;28;20437;-83
2022/12/22 08:58:46;;;;;;;;;;;;;;;7.59;76.01;101835.75;5039579;28;20299;-83
2022/12/22 09:01:15;;;;;;;;;;;;;;;7.58;76.22;101828.75;5029872;28;19920;-83
2022/12/22 09:03:41;;;;;;;;;;;;;;;7.60;76.20;101826.25;5048061;28;19917;-84
2022/12/22 09:06:06;;;;;;;;;;;;;;;7.62;76.14;101829.88;5048731;28;19986;-82
2022/12/22 09:08:32;;;;;;;;;;;;;;;7.61;76.07;101825.50;5043568;28;20449;-82
2022/12/22 09:11:01;;;;;;;;;;;;;;;7.60;76.34;101822.00;5045531;28;20382;-82
2022/12/22 09:13:27;;;;;;;;;;;;;;;7.66;76.23;101830.28;5021612;28;19924;-82
2022/12/22 09:15:52;;;;;;;;;;;;;;;7.67;76.23;101819.09;5041750;28;19913;-82
2022/12/22 09:18:17;;;;;;;;;;;;;;;7.70;75.97;101814.16;5040876;28;20403;-82
2022/12/22 09:20:43;;;;;;;;;;;;;;;7.67;76.17;101807.81;5038059;28;20370;-84
2022/12/22 09:23:09;;;;;;;;;;;;;;;7.73;75.97;101801.41;5034776;28;20397;-83
2022/12/22 09:25:34;;;;;;;;;;;;;;;7.72;75.99;101791.78;5017608;28;20406;-83
2022/12/22 09:28:00;;;;;;;;;;;;;;;7.73;76.00;101790.09;5033274;28;19913;-83
2022/12/22 09:30:25;;;;;;;;;;;;;;;7.74;76.18;101797.09;5043949;28;20318;-82
2022/12/22 09:32:53;;;;;;;;;;;;;;;7.74;76.22;101797.09;5053306;28;19913;-82
2022/12/22 09:35:18;;;;;;;;;;;;;;;7.75;76.29;101792.03;5028572;28;20353;-84
2022/12/22 09:37:44;;;;;;;;;;;;;;;7.76;76.27;101785.13;5047322;28;19917;-84
2022/12/22 09:40:09;;;;;;;;;;;;;;;7.77;76.45;101783.44;5046025;28;20390;-84
2022/12/22 09:42:35;;;;;;;;;;;;;;;7.86;76.30;101779.00;5041103;28;20425;-84
2022/12/22 09:45:00;;;;;;;;;;;;;;;7.85;76.35;101777.19;5043107;28;20000;-84
2022/12/22 09:47:34;;;;;;;;;;;;;;;7.94;76.14;101786.66;5040471;28;19913;-84
2022/12/22 09:50:00;;;;;;;;;;;;;;;7.95;75.97;101780.63;5040422;28;19924;-84
2022/12/22 09:52:29;;;;;;;;;;;;;;;7.98;76.28;101779.06;5040610;28;19913;-82
2022/12/22 09:54:55;;;;;;;;;;;;;;;7.99;76.25;101778.31;5045204;28;19925;-82
2022/12/22 09:57:20;;;;;;;;;;;;;;;8.06;75.97;101783.19;5017255;28;19917;-84
2022/12/22 09:59:46;;;;;;;;;;;;;;;8.09;76.24;101773.06;5045230;28;19964;-83
2022/12/22 10:02:32;;;;;;;;;;;;;;;8.15;75.95;101766.66;5022444;28;19924;-82
2022/12/22 10:05:03;;;;;;;;;;;;;;;8.09;76.34;101766.16;5048322;28;19925;-84
2022/12/22 10:07:33;;;;;;;;;;;;;;;8.10;76.65;101761.84;5040308;28;20329;-84
2022/12/22 10:10:16;;;;;;;;;;;;;;;8.10;76.73;101762.75;5043950;28;19913;-83
2022/12/22 10:12:41;;;;;;;;;;;;;;;8.13;77.34;101765.63;5025685;28;20377;-83
2022/12/22 10:15:09;;;;;;;;;;;;;;;8.10;77.20;101759.25;5025582;28;19925;-84
2022/12/22 10:17:37;;;;;;;;;;;;;;;8.13;77.21;101751.72;5041430;28;19920;-82
2022/12/22 10:20:05;;;;;;;;;;;;;;;8.15;77.36;101755.34;5042877;28;20419;-82
2022/12/22 10:22:32;;;;;;;;;;;;;;;8.16;77.45;101751.94;5043453;28;19939;-84
2022/12/22 10:25:01;;;;;;;;;;;;;;;8.18;78.34;101749.47;5041921;28;20451;-83
2022/12/22 10:27:28;;;;;;;;;;;;;;;8.21;77.23;101745.38;5039564;28;19919;-84
2022/12/22 10:29:53;;;;;;;;;;;;;;;8.17;78.18;101735.56;5039413;28;19998;-85
2022/12/22 10:32:20;;;;;;;;;;;;;;;8.20;78.07;101738.38;5036607;28;20405;-85
2022/12/22 10:35:00;;;;;;;;;;;;;;;8.20;78.56;101738.38;5035520;28;19921;-86
2022/12/22 10:37:29;;;;;;;;;;;;;;;8.20;77.97;101727.09;5045067;28;19917;-84
2022/12/22 10:39:54;;;;;;;;;;;;;;;8.23;78.75;101719.50;5041235;28;19943;-86
2022/12/22 10:42:20;;;;;;;;;;;;;;;8.25;77.96;101729.22;5039175;28;20032;-85
2022/12/22 10:44:47;;;;;;;;;;;;;;;8.27;77.83;101724.16;5038708;28;20198;-84
2022/12/22 10:47:18;;;;;;;;;;;;;;;8.23;77.97;101707.38;5040150;28;19953;-84
2022/12/22 10:49:44;;;;;;;;;;;;;;;8.32;77.53;101705.53;5035993;28;19913;-84
2022/12/22 10:52:18;;;;;;;;;;;;;;;8.33;77.79;101706.44;5034310;28;20370;-84
2022/12/22 10:54:43;;;;;;;;;;;;;;;8.31;78.61;101697.59;5032404;28;19917;-85
2022/12/22 10:57:12;;;;;;;;;;;;;;;8.31;78.31;101695.00;5050221;28;19913;-85
2022/12/22 10:59:57;;;;;;;;;;;;;;;8.31;78.08;101690.69;5051010;28;20378;-85
2022/12/22 11:02:26;;;;;;;;;;;;;;;8.27;79.75;101690.34;5038526;28;19913;-85
2022/12/22 11:04:52;;;;;;;;;;;;;;;8.28;78.75;101690.47;5030499;28;19919;-85
2022/12/22 11:07:18;;;;;;;;;;;;;;;8.31;78.46;101685.47;5030924;28;19992;-83
2022/12/22 11:09:43;;;;;;;;;;;;;;;8.32;78.21;101683.81;5045756;28;19920;-82
2022/12/22 11:12:27;;;;;;;;;;;;;;;8.32;78.25;101679.50;5041074;28;19966;-85
2022/12/22 11:15:10;;;;;;;;;;;;;;;8.34;78.77;101679.63;5049679;28;20417;-86
2022/12/22 11:17:43;;;;;;;;;;;;;;;8.36;78.60;101675.44;5048882;28;20010;-85
2022/12/22 11:20:24;;;;;;;;;;;;;;;8.40;78.30;101671.38;5045921;28;19920;-84
2022/12/22 11:22:56;;;;;;;;;;;;;;;8.40;79.21;101669.66;5043186;28;20378;-85
2022/12/22 11:25:23;;;;;;;;;;;;;;;8.39;78.88;101667.88;5044066;28;19917;-84
2022/12/22 11:28:01;;;;;;;;;;;;;;;8.41;79.14;101674.13;5042459;28;19917;-84
2022/12/22 11:30:29;;;;;;;;;;;;;;;8.40;79.60;101667.06;5039769;28;19917;-85
2022/12/22 11:33:09;;;;;;;;;;;;;;;8.40;79.24;101661.84;5035047;28;20382;-85
2022/12/22 11:35:45;;;;;;;;;;;;;;;8.41;79.66;101668.03;5048435;28;19917;-84
2022/12/22 11:38:18;;;;;;;;;;;;;;;8.42;79.70;101668.13;5032972;28;19917;-82
2022/12/22 11:40:45;;;;;;;;;;;;;;;8.47;79.38;101661.59;5016343;28;20011;-83
2022/12/22 11:43:11;;;;;;;;;;;;;;;8.50;79.01;101660.91;5045314;28;19917;-82
2022/12/22 11:45:37;;;;;;;;;;;;;;;8.51;78.80;101663.66;5037393;28;19928;-83
2022/12/22 11:48:03;;;;;;;;;;;;;;;8.56;78.86;101654.47;5051974;28;20314;-83
2022/12/22 11:50:34;;;;;;;;;;;;;;;8.58;79.45;101645.88;5047064;28;20366;-82
2022/12/22 11:53:11;;;;;;;;;;;;;;;8.60;79.45;101658.22;5032598;28;19917;-83
2022/12/22 11:55:38;;;;;;;;;;;;;;;8.61;78.67;101657.41;5045836;28;20321;-84
2022/12/22 11:58:09;;;;;;;;;;;;;;;8.63;79.28;101644.53;5031080;28;20455;-84
2022/12/22 12:00:37;;;;;;;;;;;;;;;8.67;79.38;101644.88;5018589;28;20464;-84
2022/12/22 12:03:21;;;;;;;;;;;;;;;8.67;79.20;101631.84;5025886;28;19935;-82
2022/12/22 12:06:05;;;;;;;;;;;;;;;8.70;79.07;101637.31;5049024;28;20411;-83
2022/12/22 12:08:38;;;;;;;;;;;;;;;8.73;79.08;101624.50;5046435;28;19912;-83
2022/12/22 12:11:22;;;;;;;;;;;;;;;8.72;79.19;101632.19;5018687;28;19913;-82
2022/12/22 12:13:48;;;;;;;;;;;;;;;8.72;79.02;101624.38;5044536;28;19913;-84
2022/12/22 12:16:17;;;;;;;;;;;;;;;8.76;78.94;101624.75;5026007;28;19970;-84
2022/12/22 12:18:42;;;;;;;;;;;;;;;8.79;79.66;101626.66;5023330;28;19963;-84
2022/12/22 12:21:11;;;;;;;;;;;;;;;8.82;78.60;101620.78;5048596;28;19913;-85
2022/12/22 12:23:39;;;;;;;;;;;;;;;8.81;78.89;101630.31;5036020;28;19959;-85
2022/12/22 12:26:14;;;;;;;;;;;;;;;8.86;78.92;101622.81;5036703;28;19921;-84
2022/12/22 12:28:49;;;;;;;;;;;;;;;8.84;78.87;101621.81;5033750;28;20444;-84
2022/12/22 12:31:15;;;;;;;;;;;;;;;8.84;78.78;101619.19;5014663;28;19940;-85
2022/12/22 12:33:48;;;;;;;;;;;;;;;8.87;79.47;101615.13;5027614;28;19983;-84
2022/12/22 12:36:32;;;;;;;;;;;;;;;8.92;78.78;101625.88;5050317;28;19944;-84
2022/12/22 12:39:03;;;;;;;;;;;;;;;8.93;79.61;101626.00;5030468;28;19925;-84
2022/12/22 12:41:49;;;;;;;;;;;;;;;8.95;78.70;101618.28;5047792;28;19919;-84
2022/12/22 12:44:15;;;;;;;;;;;;;;;8.95;78.83;101616.59;5040963;28;19949;-84
2022/12/22 12:46:45;;;;;;;;;;;;;;;8.97;78.96;101619.31;5045203;28;20428;-84
2022/12/22 12:49:39;;;;;;;;;;;;;;;8.95;78.83;101619.22;5046548;28;19990;-84
2022/12/22 12:52:05;;;;;;;;;;;;;;;8.96;80.06;101625.31;5041968;28;19972;-84
2022/12/22 12:54:31;;;;;;;;;;;;;;;8.98;78.92;101622.84;5043498;28;19999;-84
2022/12/22 12:57:00;;;;;;;;;;;;;;;8.98;79.55;101622.84;5037023;28;19974;-84
2022/12/22 12:59:41;;;;;;;;;;;;;;;9.00;79.80;101627.38;5036509;28;20032;-84
2022/12/22 13:02:25;;;;;;;;;;;;;;;9.02;79.33;101622.28;5037207;28;19917;-84
2022/12/22 13:05:12;;;;;;;;;;;;;;;9.02;79.64;101622.28;5047638;28;20381;-84
2022/12/22 13:07:56;;;;;;;;;;;;;;;8.99;80.07;101620.31;5040167;28;20020;-84
2022/12/22 13:10:22;;;;;;;;;;;;;;;9.00;80.48;101623.88;5044348;28;19913;-84
2022/12/22 13:12:50;;;;;;;;;;;;;;;8.95;79.88;101619.22;5045506;28;19939;-83
2022/12/22 13:15:35;;;;;;;;;;;;;;;8.96;80.48;101621.00;5039064;28;20379;-83
2022/12/22 13:18:01;;;;;;;;;;;;;;;8.95;80.14;101618.28;5039272;28;19975;-84
2022/12/22 13:20:33;;;;;;;;;;;;;;;8.97;79.42;101616.69;5037732;28;20360;-84
2022/12/22 13:23:00;;;;;;;;;;;;;;;9.02;79.25;101617.06;5036097;28;19924;-84
2022/12/22 13:25:45;;;;;;;;;;;;;;;8.97;79.84;101614.09;5039536;28;19961;-84
2022/12/22 13:28:14;;;;;;;;;;;;;;;8.98;80.53;101615.03;5050496;28;19952;-83
2022/12/22 13:30:40;;;;;;;;;;;;;;;8.94;80.02;101609.56;5043285;28;19917;-84
2022/12/22 13:33:07;;;;;;;;;;;;;;;8.96;80.98;101612.31;5048381;28;20424;-84
2022/12/22 13:35:37;;;;;;;;;;;;;;;8.93;80.71;101609.44;5046512;28;20034;-84
2022/12/22 13:38:03;;;;;;;;;;;;;;;8.98;80.81;101608.09;5046579;28;19913;-83
2022/12/22 13:40:29;;;;;;;;;;;;;;;8.92;80.88;101605.03;5044904;28;19928;-84
2022/12/22 13:43:02;;;;;;;;;;;;;;;8.94;80.61;101600.84;5044889;28;19962;-83
2022/12/22 13:45:32;;;;;;;;;;;;;;;8.96;80.84;101604.47;5041411;28;19928;-85
2022/12/22 13:47:59;;;;;;;;;;;;;;;8.94;81.87;101600.84;5042493;28;19920;-83
2022/12/22 13:50:30;;;;;;;;;;;;;;;8.93;80.82;101596.44;5039582;28;19989;-83
2022/12/22 13:52:55;;;;;;;;;;;;;;;8.94;80.50;101599.16;5039136;28;19920;-84
2022/12/22 13:55:24;;;;;;;;;;;;;;;8.94;80.70;101599.16;5035739;28;19913;-84
2022/12/22 13:57:50;;;;;;;;;;;;;;;8.94;80.59;101600.84;5035360;28;19952;-84
2022/12/22 14:00:23;;;;;;;;;;;;;;;8.99;80.94;101603.78;5032867;28;20006;-84
2022/12/22 14:02:49;;;;;;;;;;;;;;;8.95;80.95;101605.25;5041858;28;19945;-84
2022/12/22 14:05:14;;;;;;;;;;;;;;;8.96;80.87;101605.38;5045710;28;19949;-84
2022/12/22 14:07:40;;;;;;;;;;;;;;;8.95;80.70;101602.66;5048515;28;19913;-83
2022/12/22 14:10:06;;;;;;;;;;;;;;;8.99;80.38;101612.50;5046550;28;19967;-82
2022/12/22 14:12:35;;;;;;;;;;;;;;;9.00;81.23;101611.72;5049444;28;19912;-83
2022/12/22 14:15:01;;;;;;;;;;;;;;;8.99;80.61;101609.91;5040850;28;19952;-84
2022/12/22 14:17:30;;;;;;;;;;;;;;;9.04;81.11;101602.41;5045164;28;19951;-83
2022/12/22 14:19:56;;;;;;;;;;;;;;;9.04;80.97;101603.34;5042211;28;20448;-82
2022/12/22 14:22:23;;;;;;;;;;;;;;;9.06;80.37;101599.16;5040918;28;19943;-83
2022/12/22 14:24:55;;;;;;;;;;;;;;;9.07;81.50;101600.06;5036880;28;20368;-84
2022/12/22 14:27:32;;;;;;;;;;;;;;;9.02;81.83;101597.13;5037106;28;19916;-83
2022/12/22 14:29:59;;;;;;;;;;;;;;;9.03;80.84;101600.63;5035291;28;20448;-82
2022/12/22 14:32:35;;;;;;;;;;;;;;;9.06;81.21;101590.41;5035866;28;20015;-84
2022/12/22 14:35:00;;;;;;;;;;;;;;;9.07;82.43;101598.34;5053610;28;19917;-82
2022/12/22 14:37:25;;;;;;;;;;;;;;;9.08;81.55;101596.66;5048409;28;20383;-85
2022/12/22 14:39:54;;;;;;;;;;;;;;;9.11;82.11;101596.88;5049437;28;20479;-84
2022/12/22 14:42:20;;;;;;;;;;;;;;;9.07;82.86;101603.56;5026859;28;20516;-84
2022/12/22 14:44:45;;;;;;;;;;;;;;;9.12;81.89;101603.91;5047199;28;19975;-84
2022/12/22 14:47:11;;;;;;;;;;;;;;;9.09;82.19;101598.47;5043529;28;19917;-83
2022/12/22 14:49:42;;;;;;;;;;;;;;;9.11;82.35;101602.09;5045721;28;19920;-84
2022/12/22 14:52:15;;;;;;;;;;;;;;;9.16;82.00;101600.72;5041458;28;19940;-85
2022/12/22 14:54:44;;;;;;;;;;;;;;;9.13;83.43;101600.50;5025229;28;19936;-84
2022/12/22 14:57:10;;;;;;;;;;;;;;;9.08;83.62;101602.78;5036366;28;19920;-84
2022/12/22 14:59:35;;;;;;;;;;;;;;;9.11;82.88;101608.22;5021436;28;20424;-84
2022/12/22 15:02:02;;;;;;;;;;;;;;;9.16;82.66;101596.44;5038253;28;19999;-84
2022/12/22 15:04:27;;;;;;;;;;;;;;;9.12;82.41;101603.91;5051226;28;19963;-84
2022/12/22 15:07:02;;;;;;;;;;;;;;;9.11;82.17;101597.78;5048330;28;19917;-86
2022/12/22 15:09:28;;;;;;;;;;;;;;;9.13;83.41;101600.50;5048805;28;20325;-85
2022/12/22 15:12:04;;;;;;;;;;;;;;;9.14;82.60;101602.31;5042890;28;20409;-85
2022/12/22 15:14:30;;;;;;;;;;;;;;;9.15;82.26;101596.31;5046261;28;19920;-85
2022/12/22 15:16:55;;;;;;;;;;;;;;;9.12;83.63;101610.03;5039865;28;19913;-86
2022/12/22 15:19:21;;;;;;;;;;;;;;;9.12;83.10;101609.09;5041764;28;19970;-86
2022/12/22 15:21:47;;;;;;;;;;;;;;;9.11;83.56;101608.22;5036686;28;19913;-85
2022/12/22 15:24:16;;;;;;;;;;;;;;;9.14;82.94;101613.66;5039094;28;20003;-85
2022/12/22 15:26:41;;;;;;;;;;;;;;;9.17;82.97;101612.97;5034407;28;19924;-85
2022/12/22 15:29:07;;;;;;;;;;;;;;;9.15;82.85;101611.94;5034243;28;19917;-85
2022/12/22 15:31:32;;;;;;;;;;;;;;;9.17;82.35;101608.66;5041643;28;19995;-86
2022/12/22 15:33:58;;;;;;;;;;;;;;;9.16;82.84;101611.16;5032704;28;20349;-85
2022/12/22 15:36:23;;;;;;;;;;;;;;;9.16;82.75;101604.25;5049745;28;19999;-86
2022/12/22 15:38:49;;;;;;;;;;;;;;;9.22;82.75;101595.06;5045323;28;19921;-85
2022/12/22 15:41:15;;;;;;;;;;;;;;;9.19;83.45;101606.16;5048167;28;19921;-86
2022/12/22 15:43:40;;;;;;;;;;;;;;;9.16;83.97;101611.16;5048266;28;19936;-86
2022/12/22 15:46:06;;;;;;;;;;;;;;;9.19;83.19;101607.88;5043926;28;19917;-86
2022/12/22 15:48:32;;;;;;;;;;;;;;;9.18;83.71;101604.34;5045083;28;20397;-85
2022/12/22 15:50:57;;;;;;;;;;;;;;;9.19;83.27;101603.56;5039806;28;20290;-86
2022/12/22 15:53:23;;;;;;;;;;;;;;;9.20;83.67;101607.06;5041863;28;19912;-86
2022/12/22 15:55:49;;;;;;;;;;;;;;;9.21;83.63;101611.47;5036466;28;20313;-86
2022/12/22 15:58:16;;;;;;;;;;;;;;;9.19;82.91;101607.88;5038114;28;19913;-86
2022/12/22 16:00:41;;;;;;;;;;;;;;;9.22;84.02;101615.91;5033992;28;19913;-86
2022/12/22 16:03:08;;;;;;;;;;;;;;;9.19;84.04;101614.00;5045376;28;20377;-86
2022/12/22 16:05:33;;;;;;;;;;;;;;;9.20;84.15;101609.69;5043189;28;19924;-85
2022/12/22 16:07:59;;;;;;;;;;;;;;;9.21;83.91;101607.19;5056437;28;19920;-84
2022/12/22 16:10:26;;;;;;;;;;;;;;;9.27;83.29;101609.31;5048111;28;19920;-86
2022/12/22 16:12:59;;;;;;;;;;;;;;;9.31;84.11;101603.53;5028491;28;19967;-86
2022/12/22 16:15:25;;;;;;;;;;;;;;;9.29;83.12;101607.72;5042675;28;19917;-86
2022/12/22 16:17:51;;;;;;;;;;;;;;;9.26;83.43;101607.53;5041967;28;19912;-86
2022/12/22 16:20:17;;;;;;;;;;;;;;;9.28;82.87;101612.03;5038146;28;20321;-87
2022/12/22 16:22:43;;;;;;;;;;;;;;;9.27;83.29;101617.13;5041151;28;19920;-87
2022/12/22 16:25:13;;;;;;;;;;;;;;;9.24;82.66;101620.44;5035940;28;20318;-85
2022/12/22 16:27:39;;;;;;;;;;;;;;;9.30;82.83;101619.97;5036531;28;20004;-86
2022/12/22 16:30:05;;;;;;;;;;;;;;;9.31;81.69;101619.16;5042572;28;19956;-87
2022/12/22 16:32:30;;;;;;;;;;;;;;;9.24;83.26;101615.22;5034504;28;19928;-86